KLBO

Floyd W Jones Lebanon Airport

Lebanon, Missouri, USA
METAR KLBO 110255Z AUTO 23003KT 10SM CLR 00/M10 A3029 RMK AO2
Observed Flight Rules
Dec-11 @ 02:55 UTC (7 minutes ago) Visual Flight Rules
Wind Visibility Clouds
230° at 3 knots 10 miles
  • Clear skies
Temperatures Readings
Current 0°C / 32°F
Dewpoint -10°C / 14°F
Humidity 47%
Altimeter 30.29" Hg
Pressure 1026 hPa
Elevation 403
METAR KLBO 110255Z AUTO 23003KT 10SM CLR 00/M10 A3029 RMK AO2
Observed Flight Rules
Dec-11 @ 02:55 UTC
(7 minutes ago)
VFR
Wind Visibility
230° at 3 knots 10 miles
Clouds
  • Clear skies
Temperature Dewpoint
0°C / 32°F -10°C / 14°F
Humidity Altimeter Pressure
47% 30.29" Hg 1026 hPa